Time;durP1;ratioP1;P1;durP2;ratioP2;P2;SDS_P1;SDS_P2;PMS_P1;PMS_P2;Temp;Humidity;BMP_temperature;BMP_pressure;BME280_temperature;BME280_humidity;BME280_pressure;Samples;Min_cycle;Max_cycle;Signal;HPM_P1;HPM_P2
2022/07/16 00:01:42;;;;;;;21.27;14.83;;;27.30;99.90;;;;;;1836911;77;21169;-83
2022/07/16 00:04:13;;;;;;;23.07;14.28;;;27.30;99.90;;;;;;1828795;77;21150;-83
2022/07/16 00:06:45;;;;;;;21.37;15.83;;;27.30;99.90;;;;;;1789191;79;21146;-83
2022/07/16 00:09:16;;;;;;;21.00;14.93;;;27.30;99.90;;;;;;1843609;77;21592;-84
2022/07/16 00:11:47;;;;;;;19.50;15.23;;;27.30;99.90;;;;;;1840885;77;21134;-85
2022/07/16 00:14:19;;;;;;;19.32;14.65;;;27.30;99.90;;;;;;1786289;80;21181;-85
2022/07/16 00:16:50;;;;;;;19.75;15.13;;;27.30;99.90;;;;;;1751067;80;21183;-84
2022/07/16 00:19:23;;;;;;;17.27;13.18;;;27.40;99.90;;;;;;1807442;78;21132;-84
2022/07/16 00:21:56;;;;;;;16.30;11.88;;;27.40;99.90;;;;;;1801945;79;21919;-85
2022/07/16 00:24:27;;;;;;;19.55;11.35;;;27.40;99.90;;;;;;1795216;79;21874;-84
2022/07/16 00:26:58;;;;;;;19.52;11.85;;;27.40;99.90;;;;;;1761446;80;21651;-84
2022/07/16 00:29:29;;;;;;;16.77;10.63;;;27.50;99.90;;;;;;1767624;80;21200;-84
2022/07/16 00:32:00;;;;;;;17.75;10.85;;;27.40;99.90;;;;;;1773903;80;21182;-84
2022/07/16 00:34:32;;;;;;;19.00;11.33;;;27.50;99.90;;;;;;1811148;78;21206;-85
2022/07/16 00:37:04;;;;;;;16.42;9.65;;;27.50;99.90;;;;;;1785646;78;21114;-83
2022/07/16 00:39:35;;;;;;;16.75;10.18;;;27.50;99.90;;;;;;1799327;78;21234;-72
2022/07/16 00:42:07;;;;;;;14.90;10.23;;;27.60;99.90;;;;;;1802984;78;21253;-71
2022/07/16 00:44:39;;;;;;;15.72;10.72;;;27.60;99.90;;;;;;1798569;78;21093;-72
2022/07/16 00:47:10;;;;;;;15.53;10.55;;;27.60;99.90;;;;;;1809164;78;21156;-71
2022/07/16 00:49:41;;;;;;;18.65;12.00;;;27.60;99.90;;;;;;1808274;78;21129;-71
2022/07/16 00:52:12;;;;;;;17.45;11.00;;;27.70;99.90;;;;;;1812097;78;21156;-71
2022/07/16 00:54:43;;;;;;;14.40;11.05;;;27.70;99.90;;;;;;1817520;78;21129;-71
2022/07/16 00:57:13;;;;;;;16.35;12.65;;;27.80;99.90;;;;;;1799220;78;21202;-72
2022/07/16 00:59:45;;;;;;;20.55;15.63;;;27.80;99.90;;;;;;1771223;79;21241;-72
2022/07/16 01:02:16;;;;;;;21.20;13.03;;;27.90;99.90;;;;;;1760551;80;21633;-72
2022/07/16 01:04:48;;;;;;;18.80;11.68;;;28.00;99.90;;;;;;1774315;79;21255;-72
2022/07/16 01:07:22;;;;;;;16.65;11.78;;;28.00;99.90;;;;;;1790917;79;21115;-72
2022/07/16 01:09:54;;;;;;;14.98;10.82;;;28.00;99.90;;;;;;1774418;80;21328;-71
2022/07/16 01:12:26;;;;;;;16.90;11.35;;;28.00;99.90;;;;;;1816687;78;21242;-72
2022/07/16 01:14:59;;;;;;;15.48;9.15;;;28.00;99.90;;;;;;1760717;79;21162;-72
2022/07/16 01:17:30;;;;;;;13.45;8.83;;;28.10;99.90;;;;;;1776726;79;21147;-70
2022/07/16 01:20:02;;;;;;;15.78;9.05;;;28.10;99.90;;;;;;1830338;78;21116;-73
2022/07/16 01:22:33;;;;;;;14.30;8.80;;;28.20;99.90;;;;;;1779972;79;21248;-72
2022/07/16 01:25:05;;;;;;;17.50;8.80;;;28.30;99.90;;;;;;1774614;80;21174;-72
2022/07/16 01:27:40;;;;;;;12.40;8.55;;;28.40;99.90;;;;;;1784048;79;21233;-73
2022/07/16 01:30:11;;;;;;;14.30;9.00;;;28.40;99.90;;;;;;1821221;78;21239;-72
2022/07/16 01:32:42;;;;;;;15.25;9.75;;;28.50;99.90;;;;;;1780727;79;21215;-72
2022/07/16 01:35:13;;;;;;;15.98;11.35;;;28.60;99.90;;;;;;1811074;78;21118;-73
2022/07/16 01:37:44;;;;;;;13.93;8.55;;;28.70;99.90;;;;;;1796025;79;21182;-73
2022/07/16 01:40:15;;;;;;;12.53;8.73;;;28.70;99.90;;;;;;1792522;79;21133;-74
2022/07/16 01:42:46;;;;;;;15.28;10.13;;;28.80;99.90;;;;;;1796983;79;21151;-74
2022/07/16 01:45:17;;;;;;;11.20;9.20;;;28.80;99.90;;;;;;1812795;78;21184;-73
2022/07/16 01:47:48;;;;;;;13.55;9.08;;;28.90;99.90;;;;;;1781765;80;21181;-73
2022/07/16 01:50:20;;;;;;;15.15;8.58;;;29.00;99.90;;;;;;1813404;79;21101;-72
2022/07/16 01:52:51;;;;;;;13.98;8.48;;;29.10;99.90;;;;;;1795105;79;21178;-72
2022/07/16 01:55:23;;;;;;;14.58;9.38;;;29.20;99.90;;;;;;1800955;79;21522;-71
2022/07/16 01:57:54;;;;;;;15.23;8.73;;;29.30;99.90;;;;;;1801681;79;21179;-71
2022/07/16 02:00:25;;;;;;;11.38;8.80;;;29.40;99.90;;;;;;1789203;79;21711;-71
2022/07/16 02:02:56;;;;;;;18.20;9.68;;;29.50;99.90;;;;;;1780966;80;21210;-72
2022/07/16 02:05:28;;;;;;;13.75;8.33;;;29.50;99.90;;;;;;1836893;78;21155;-72
2022/07/16 02:07:59;;;;;;;12.80;8.75;;;29.60;99.90;;;;;;1766790;79;21657;-72
2022/07/16 02:10:30;;;;;;;12.65;7.45;;;29.70;99.90;;;;;;1780382;80;21155;-72
2022/07/16 02:13:24;;;;;;;21.07;9.30;;;29.80;99.90;;;;;;1832340;78;21108;-70
2022/07/16 02:15:55;;;;;;;11.90;7.35;;;29.80;99.90;;;;;;1759212;81;21177;-71
2022/07/16 02:18:26;;;;;;;14.03;7.83;;;29.90;99.90;;;;;;1795187;78;21095;-71
2022/07/16 02:20:58;;;;;;;11.43;7.60;;;30.00;99.90;;;;;;1787274;80;21756;-70
2022/07/16 02:23:29;;;;;;;12.50;7.05;;;30.00;99.90;;;;;;1796137;80;21124;-72
2022/07/16 02:26:01;;;;;;;13.85;7.83;;;30.10;99.90;;;;;;1797328;80;21213;-71
2022/07/16 02:28:36;;;;;;;13.93;8.20;;;30.10;99.90;;;;;;1766670;80;21657;-71
2022/07/16 02:31:07;;;;;;;12.98;7.83;;;30.10;99.90;;;;;;1794984;79;21209;-71
2022/07/16 02:33:38;;;;;;;10.98;7.40;;;30.10;99.90;;;;;;1799686;78;21099;-71
2022/07/16 02:36:10;;;;;;;16.25;8.28;;;30.10;99.90;;;;;;1772177;80;21661;-71
2022/07/16 02:38:42;;;;;;;11.10;8.10;;;30.10;99.90;;;;;;1797777;78;21157;-71
2022/07/16 02:41:14;;;;;;;19.65;8.55;;;30.10;99.90;;;;;;1787626;78;21119;-71
2022/07/16 02:43:45;;;;;;;14.13;7.20;;;30.20;99.90;;;;;;1784035;80;21653;-72
2022/07/16 02:46:16;;;;;;;13.48;7.10;;;30.20;99.90;;;;;;1787485;80;21143;-71
2022/07/16 02:48:48;;;;;;;11.48;6.22;;;30.40;99.90;;;;;;1784212;78;21294;-72
2022/07/16 02:51:19;;;;;;;9.38;6.05;;;30.50;99.90;;;;;;1794570;78;21678;-72
2022/07/16 02:53:50;;;;;;;10.70;6.50;;;30.60;99.90;;;;;;1822364;78;21139;-71
2022/07/16 02:56:22;;;;;;;12.28;6.50;;;;;;;;;;1826627;78;21147;-72
2022/07/16 02:58:53;;;;;;;10.88;6.78;;;30.30;99.90;;;;;;1800511;78;21159;-71
2022/07/16 03:01:24;;;;;;;10.23;6.72;;;31.00;99.90;;;;;;1804953;79;21122;-72
2022/07/16 03:03:55;;;;;;;10.28;6.80;;;31.10;99.90;;;;;;1777089;79;21236;-70
2022/07/16 03:06:26;;;;;;;9.95;6.08;;;31.20;99.90;;;;;;1796058;78;21244;-71
2022/07/16 03:08:57;;;;;;;11.22;6.65;;;31.30;99.90;;;;;;1775333;81;21216;-71
2022/07/16 03:11:29;;;;;;;13.13;6.87;;;31.30;99.90;;;;;;1795538;79;21079;-71
2022/07/16 03:14:01;;;;;;;11.22;6.80;;;31.40;99.90;;;;;;1805373;79;21565;-71
2022/07/16 03:16:32;;;;;;;12.10;6.62;;;31.50;99.90;;;;;;1817111;78;21179;-71
2022/07/16 03:19:03;;;;;;;11.10;7.17;;;31.50;99.90;;;;;;1827206;78;21475;-71
2022/07/16 03:21:34;;;;;;;9.13;5.58;;;31.50;99.90;;;;;;1820007;78;21275;-71
2022/07/16 03:24:06;;;;;;;8.63;5.62;;;31.40;99.80;;;;;;1859090;77;21983;-72
2022/07/16 03:26:37;;;;;;;9.20;5.37;;;31.30;99.30;;;;;;1798360;78;21192;-72
2022/07/16 03:29:09;;;;;;;9.48;5.20;;;31.30;99.80;;;;;;1862404;76;21606;-71
2022/07/16 03:31:40;;;;;;;10.68;5.78;;;31.40;99.10;;;;;;1828182;76;21182;-71
2022/07/16 03:34:10;;;;;;;10.63;5.45;;;31.50;99.70;;;;;;1855515;76;21614;-71
2022/07/16 03:36:41;;;;;;;9.45;5.25;;;;;;;;;;1833842;76;21138;-72
2022/07/16 03:39:13;;;;;;;11.95;5.65;;;31.70;98.30;;;;;;1853573;76;21091;-70
2022/07/16 03:41:44;;;;;;;8.28;5.65;;;31.90;98.70;;;;;;1810439;78;21249;-71
2022/07/16 03:44:15;;;;;;;10.25;5.42;;;32.00;98.40;;;;;;1814403;77;21134;-71
2022/07/16 03:46:46;;;;;;;9.70;5.75;;;32.10;98.10;;;;;;1823250;77;21077;-71
2022/07/16 03:49:17;;;;;;;9.08;5.47;;;32.10;98.00;;;;;;1819446;78;21787;-72
2022/07/16 03:51:48;;;;;;;8.83;6.37;;;32.10;97.80;;;;;;1835032;77;21223;-72
2022/07/16 03:54:19;;;;;;;11.30;6.03;;;31.90;97.60;;;;;;1852490;77;21197;-72
2022/07/16 03:56:50;;;;;;;9.58;5.03;;;31.70;97.60;;;;;;1823338;78;21244;-73
2022/07/16 03:59:22;;;;;;;12.70;4.95;;;31.70;98.00;;;;;;1830479;77;21220;-71
2022/07/16 04:01:53;;;;;;;7.12;4.70;;;31.70;97.00;;;;;;1828608;77;21166;-71
2022/07/16 04:04:24;;;;;;;7.80;4.53;;;31.80;96.80;;;;;;1825538;77;21134;-71
2022/07/16 04:06:55;;;;;;;7.87;4.58;;;31.90;96.30;;;;;;1826546;77;21234;-72
2022/07/16 04:09:26;;;;;;;7.10;4.33;;;32.00;96.10;;;;;;1832772;77;21213;-72
2022/07/16 04:11:57;;;;;;;8.00;4.58;;;32.10;96.10;;;;;;1834927;77;21126;-71
2022/07/16 04:14:29;;;;;;;9.08;4.92;;;32.10;95.80;;;;;;1825336;77;21723;-72
2022/07/16 04:17:00;;;;;;;9.38;5.20;;;32.10;95.90;;;;;;1805901;78;21611;-71
2022/07/16 04:19:31;;;;;;;10.20;4.70;;;32.20;95.60;;;;;;1815026;78;21177;-71
2022/07/16 04:22:02;;;;;;;9.78;5.45;;;32.30;95.90;;;;;;1829742;78;21264;-72
2022/07/16 04:24:33;;;;;;;10.35;4.35;;;32.40;96.40;;;;;;1795143;79;21083;-72
2022/07/16 04:27:04;;;;;;;7.03;4.28;;;32.40;95.00;;;;;;1866158;76;21159;-71
2022/07/16 04:29:39;;;;;;;8.18;4.00;;;32.50;95.10;;;;;;1813834;78;21212;-72
2022/07/16 04:32:10;;;;;;;7.72;4.08;;;32.60;94.30;;;;;;1834831;78;21768;-72
2022/07/16 04:34:41;;;;;;;7.28;4.35;;;;;;;;;;1823266;78;21198;-72
2022/07/16 04:37:13;;;;;;;9.50;4.37;;;32.70;93.70;;;;;;1839876;77;21137;-71
2022/07/16 04:39:44;;;;;;;7.83;4.45;;;32.80;95.30;;;;;;1834306;78;21189;-72
2022/07/16 04:42:15;;;;;;;6.60;4.33;;;32.80;94.30;;;;;;1836521;78;21598;-72
2022/07/16 04:44:46;;;;;;;9.43;5.00;;;32.80;94.10;;;;;;1830262;78;21181;-72
2022/07/16 04:47:17;;;;;;;8.45;4.80;;;32.90;93.70;;;;;;1774477;79;21170;-72
2022/07/16 04:49:48;;;;;;;7.87;4.53;;;32.90;94.30;;;;;;1853513;77;21218;-72
2022/07/16 04:52:19;;;;;;;9.55;4.58;;;32.90;94.00;;;;;;1782204;80;21260;-71
2022/07/16 04:54:51;;;;;;;7.72;4.67;;;32.80;94.30;;;;;;1829619;76;21547;-72
2022/07/16 04:57:22;;;;;;;8.45;3.27;;;32.70;93.40;;;;;;1827072;78;21104;-71
2022/07/16 04:59:53;;;;;;;6.70;4.00;;;32.80;94.00;;;;;;1839276;78;21150;-71
2022/07/16 05:05:00;;;;;;;6.93;3.60;;;32.70;92.80;;;;;;1833481;78;21083;-71
2022/07/16 05:07:32;;;;;;;6.58;2.67;;;32.90;92.40;;;;;;1831142;76;21178;-72
2022/07/16 05:10:03;;;;;;;6.00;2.02;;;32.90;92.60;;;;;;1831259;78;21224;-71
2022/07/16 05:12:34;;;;;;;6.37;2.45;;;33.10;92.30;;;;;;1835920;78;21217;-71
2022/07/16 05:15:05;;;;;;;5.10;3.05;;;33.10;91.30;;;;;;1835973;76;21163;-72
2022/07/16 05:17:36;;;;;;;7.50;2.67;;;33.20;90.50;;;;;;1837852;76;21637;-71
2022/07/16 05:20:08;;;;;;;4.20;2.50;;;33.20;90.20;;;;;;1766972;81;21162;-71
2022/07/16 05:22:40;;;;;;;7.70;3.05;;;33.30;89.10;;;;;;1771720;79;21574;-71
2022/07/16 05:25:12;;;;;;;7.10;3.40;;;33.40;89.90;;;;;;1754754;81;21641;-72
2022/07/16 05:27:43;;;;;;;6.80;2.80;;;33.40;89.90;;;;;;1838531;78;21772;-72
2022/07/16 05:30:14;;;;;;;5.78;2.77;;;33.50;86.60;;;;;;1839295;78;21146;-72
2022/07/16 05:32:47;;;;;;;9.50;3.47;;;33.50;87.50;;;;;;1838807;76;21675;-72
2022/07/16 05:35:19;;;;;;;6.75;3.20;;;33.60;88.50;;;;;;1771202;79;21390;-70
2022/07/16 05:37:56;;;;;;;6.12;3.30;;;33.70;88.20;;;;;;1743971;79;21159;-72
2022/07/16 05:40:46;;;;;;;9.05;3.55;;;33.70;88.10;;;;;;1827650;78;21139;-71
2022/07/16 05:43:31;;;;;;;7.05;3.15;;;33.60;90.00;;;;;;1828583;76;21738;-71
2022/07/16 05:46:02;;;;;;;7.47;2.92;;;33.60;88.20;;;;;;1800913;78;21240;-70
2022/07/16 05:48:42;;;;;;;5.67;2.47;;;33.60;86.70;;;;;;1743393;79;21241;-69
2022/07/16 05:51:14;;;;;;;5.45;2.70;;;33.60;85.40;;;;;;1773681;80;21105;-70
2022/07/16 05:53:46;;;;;;;6.70;3.58;;;33.60;84.90;;;;;;1802471;78;21144;-69
2022/07/16 05:56:21;;;;;;;7.00;3.17;;;33.60;86.40;;;;;;1841307;78;21573;-72
2022/07/16 05:58:56;;;;;;;4.83;2.45;;;33.60;86.80;;;;;;1838858;78;21708;-71
2022/07/16 06:01:27;;;;;;;6.87;3.08;;;33.70;84.30;;;;;;1841190;76;21155;-71
2022/07/16 06:03:58;;;;;;;5.92;2.92;;;33.70;85.70;;;;;;1836578;78;21123;-71
2022/07/16 06:06:30;;;;;;;6.70;2.30;;;33.70;85.80;;;;;;1838311;78;21178;-72
2022/07/16 06:09:01;;;;;;;6.90;3.27;;;33.70;86.00;;;;;;1830893;76;21550;-71
2022/07/16 06:11:35;;;;;;;4.62;2.87;;;33.70;86.90;;;;;;1833083;78;21178;-71
2022/07/16 06:14:06;;;;;;;4.30;2.72;;;33.80;85.30;;;;;;1837871;77;21753;-71
2022/07/16 06:16:38;;;;;;;6.05;3.02;;;33.70;85.00;;;;;;1838545;77;22475;-72
2022/07/16 06:19:10;;;;;;;5.62;2.60;;;33.80;85.80;;;;;;1819099;77;21146;-71
2022/07/16 06:21:42;;;;;;;5.53;3.22;;;33.70;84.70;;;;;;1825417;77;21267;-72
2022/07/16 06:24:16;;;;;;;4.62;1.95;;;33.70;83.80;;;;;;1833267;77;21150;-72
2022/07/16 06:26:49;;;;;;;5.90;1.85;;;33.70;80.60;;;;;;1798196;78;21083;-71
2022/07/16 06:29:39;;;;;;;5.12;2.05;;;33.70;80.40;;;;;;1821821;78;21166;-73
2022/07/16 06:32:10;;;;;;;4.72;2.80;;;33.70;82.40;;;;;;1854191;77;21161;-71
2022/07/16 06:34:41;;;;;;;3.58;2.42;;;33.70;83.60;;;;;;1866144;76;21120;-71
2022/07/16 06:37:12;;;;;;;4.78;1.50;;;33.70;82.20;;;;;;1860802;77;21182;-71
2022/07/16 06:39:43;;;;;;;5.28;2.25;;;33.70;79.60;;;;;;1891063;74;21075;-72
2022/07/16 06:42:14;;;;;;;3.80;1.65;;;33.70;78.90;;;;;;1895303;74;21182;-72
2022/07/16 06:44:45;;;;;;;5.75;2.72;;;33.60;80.60;;;;;;1894610;74;21115;-71
2022/07/16 06:47:16;;;;;;;6.58;2.83;;;33.60;85.00;;;;;;1888705;74;21119;-70
2022/07/16 06:49:47;;;;;;;8.55;3.02;;;33.60;83.50;;;;;;1898213;74;21758;-71
2022/07/16 06:52:18;;;;;;;9.18;2.87;;;33.60;83.40;;;;;;1899420;74;21116;-72
2022/07/16 06:54:49;;;;;;;6.35;2.83;;;33.60;84.10;;;;;;1889285;74;21493;-71
2022/07/16 06:57:21;;;;;;;7.72;2.85;;;33.60;85.40;;;;;;1894122;74;21119;-71
2022/07/16 06:59:52;;;;;;;7.33;3.35;;;33.60;85.10;;;;;;1896932;74;21198;-72
2022/07/16 07:02:23;;;;;;;8.15;2.50;;;33.70;84.80;;;;;;1887414;74;21200;-72
2022/07/16 07:04:53;;;;;;;4.97;2.60;;;33.70;84.00;;;;;;1898366;74;21126;-71
2022/07/16 07:07:25;;;;;;;5.08;2.33;;;33.70;83.50;;;;;;1894185;74;21756;-71
2022/07/16 07:09:56;;;;;;;4.40;2.10;;;33.70;83.60;;;;;;1896979;74;21587;-71
2022/07/16 07:12:27;;;;;;;8.50;2.60;;;33.70;83.40;;;;;;1891244;74;21637;-72
2022/07/16 07:14:59;;;;;;;6.75;2.40;;;33.70;84.70;;;;;;1885790;74;21151;-71
2022/07/16 07:17:30;;;;;;;4.28;1.82;;;33.80;81.70;;;;;;1902111;74;21146;-70
2022/07/16 07:20:01;;;;;;;6.37;1.75;;;33.70;78.80;;;;;;1888903;74;21103;-70
2022/07/16 07:22:33;;;;;;;2.65;1.20;;;33.70;78.60;;;;;;1897260;74;21159;-72
2022/07/16 07:25:05;;;;;;;2.55;1.60;;;33.70;77.00;;;;;;1898579;74;21169;-70
2022/07/16 07:27:36;;;;;;;6.60;2.12;;;33.60;77.00;;;;;;1889764;75;21115;-70
2022/07/16 07:30:08;;;;;;;3.58;1.87;;;33.70;78.00;;;;;;1871685;76;21016;-71
2022/07/16 07:32:40;;;;;;;5.25;2.33;;;33.70;79.60;;;;;;1901575;74;21141;-70
2022/07/16 07:35:14;;;;;;;7.28;2.75;;;33.70;79.90;;;;;;1900095;75;21178;-70
2022/07/16 07:37:45;;;;;;;5.53;3.02;;;33.70;81.30;;;;;;1893455;75;21580;-70
2022/07/16 07:40:16;;;;;;;5.50;2.87;;;33.70;79.80;;;;;;1855265;76;21208;-71
2022/07/16 07:43:07;;;;;;;4.33;1.70;;;33.70;80.80;;;;;;1893008;74;21510;-72
2022/07/16 07:45:40;;;;;;;5.85;2.42;;;33.70;78.50;;;;;;1837528;77;21175;-71
2022/07/16 07:48:11;;;;;;;5.92;2.70;;;33.70;78.90;;;;;;1853130;77;21149;-71
2022/07/16 07:50:42;;;;;;;4.47;2.00;;;33.80;80.90;;;;;;1810768;78;21591;-72
2022/07/16 07:53:13;;;;;;;4.00;2.40;;;33.70;79.10;;;;;;1813534;78;21179;-71
2022/07/16 07:55:44;;;;;;;3.67;2.10;;;33.80;80.00;;;;;;1842204;77;21187;-70
2022/07/16 07:58:16;;;;;;;5.25;2.50;;;33.70;82.00;;;;;;1851640;76;21158;-72
2022/07/16 08:00:54;;;;;;;6.08;2.98;;;33.70;81.50;;;;;;1832923;78;21666;-73
2022/07/16 08:03:25;;;;;;;4.53;1.80;;;33.80;83.20;;;;;;1831088;77;21097;-71
2022/07/16 08:05:57;;;;;;;6.65;2.75;;;33.80;80.00;;;;;;1834655;78;21637;-70
2022/07/16 08:08:28;;;;;;;3.90;2.20;;;33.70;78.50;;;;;;1833289;78;21154;-71
2022/07/16 08:10:59;;;;;;;2.83;1.72;;;33.80;80.30;;;;;;1846166;76;21188;-71
2022/07/16 08:13:30;;;;;;;3.72;2.10;;;33.80;78.70;;;;;;1852547;76;21115;-71
2022/07/16 08:16:01;;;;;;;4.55;2.00;;;33.70;77.60;;;;;;1830859;78;21144;-71
2022/07/16 08:18:32;;;;;;;6.22;2.10;;;33.80;79.70;;;;;;1832542;78;21220;-71
2022/07/16 08:21:03;;;;;;;6.45;2.30;;;33.80;77.00;;;;;;1830424;78;21611;-70
2022/07/16 08:26:11;;;;;;;4.80;2.77;;;33.70;80.40;;;;;;1812398;78;21152;-71
2022/07/16 08:28:45;;;;;;;6.53;2.92;;;33.70;81.30;;;;;;1849105;76;21087;-71
2022/07/16 08:31:18;;;;;;;4.80;2.95;;;33.70;81.40;;;;;;1835842;78;21184;-71
2022/07/16 08:33:50;;;;;;;6.95;2.90;;;33.70;83.30;;;;;;1841428;77;21146;-71
2022/07/16 08:36:22;;;;;;;6.28;3.05;;;33.70;82.20;;;;;;1835853;77;21548;-71
2022/07/16 08:38:56;;;;;;;7.95;2.92;;;33.60;83.40;;;;;;1831289;77;21152;-70
2022/07/16 08:41:28;;;;;;;6.87;3.05;;;33.60;84.00;;;;;;1833543;78;21211;-70
2022/07/16 08:44:00;;;;;;;5.22;2.92;;;33.60;83.70;;;;;;1834830;78;21162;-71
2022/07/16 08:46:32;;;;;;;6.12;3.40;;;33.60;85.30;;;;;;1828971;78;21144;-72
2022/07/16 08:49:04;;;;;;;4.95;2.72;;;33.60;84.80;;;;;;1849323;77;21096;-70
2022/07/16 08:51:37;;;;;;;6.90;3.00;;;33.60;83.00;;;;;;1846168;77;21143;-70
2022/07/16 08:54:11;;;;;;;6.78;3.00;;;33.60;83.40;;;;;;1846799;77;21184;-70
2022/07/16 08:56:44;;;;;;;6.50;2.70;;;33.50;83.90;;;;;;1845951;78;21088;-70
2022/07/16 08:59:15;;;;;;;8.10;3.25;;;33.40;83.40;;;;;;1849094;77;21086;-71
2022/07/16 09:01:47;;;;;;;5.62;3.20;;;33.40;85.60;;;;;;1852648;77;22457;-71
2022/07/16 09:04:18;;;;;;;7.83;3.20;;;33.30;86.10;;;;;;1851924;77;21097;-71
2022/07/16 09:06:49;;;;;;;8.18;4.17;;;33.30;86.50;;;;;;1852594;77;21109;-71
2022/07/16 09:09:20;;;;;;;8.90;3.83;;;33.20;86.30;;;;;;1852040;77;21156;-72
2022/07/16 09:11:51;;;;;;;6.62;3.55;;;33.20;86.30;;;;;;1844544;77;21094;-71
2022/07/16 09:14:22;;;;;;;6.35;3.35;;;33.20;86.20;;;;;;1846996;77;21703;-71
2022/07/16 09:16:55;;;;;;;5.33;3.27;;;33.30;86.80;;;;;;1865020;76;21172;-71
2022/07/16 09:19:28;;;;;;;4.92;3.08;;;33.30;85.80;;;;;;1791395;79;21645;-71
2022/07/16 09:22:02;;;;;;;6.87;3.08;;;33.30;84.60;;;;;;1786307;80;21149;-71
2022/07/16 09:24:36;;;;;;;6.33;3.02;;;33.20;84.40;;;;;;1849025;77;21163;-71
2022/07/16 09:27:10;;;;;;;4.92;3.33;;;33.20;85.50;;;;;;1836974;76;21187;-71
2022/07/16 09:29:44;;;;;;;7.60;3.75;;;33.20;86.40;;;;;;1858201;76;21239;-72
2022/07/16 09:32:17;;;;;;;6.12;3.98;;;33.10;86.40;;;;;;1828837;78;21193;-71
2022/07/16 09:34:51;;;;;;;7.17;3.47;;;33.10;87.00;;;;;;1862290;76;21612;-71
2022/07/16 09:37:22;;;;;;;7.97;4.45;;;33.10;86.90;;;;;;1858964;76;21620;-71
2022/07/16 09:39:53;;;;;;;4.67;2.40;;;33.10;86.90;;;;;;1857893;76;21202;-70
2022/07/16 09:42:27;;;;;;;5.30;2.60;;;33.10;84.60;;;;;;1859523;76;21209;-70
2022/07/16 09:44:59;;;;;;;4.67;2.92;;;33.00;82.00;;;;;;1856472;76;21075;-71
2022/07/16 09:47:30;;;;;;;5.12;2.40;;;33.00;83.20;;;;;;1812670;78;21153;-71
2022/07/16 09:50:01;;;;;;;6.97;3.08;;;33.00;84.50;;;;;;1818861;78;21228;-72
2022/07/16 09:52:34;;;;;;;6.97;2.83;;;33.00;84.20;;;;;;1816293;78;21155;-72
2022/07/16 09:55:06;;;;;;;5.22;2.40;;;32.90;83.50;;;;;;1796716;79;21146;-71
2022/07/16 09:57:41;;;;;;;6.15;2.65;;;33.00;82.70;;;;;;1793332;80;21667;-72
2022/07/16 10:00:17;;;;;;;4.08;2.00;;;33.00;82.60;;;;;;1821076;78;21606;-70
2022/07/16 10:02:49;;;;;;;4.85;2.35;;;33.00;83.10;;;;;;1826839;77;21159;-71
2022/07/16 10:05:22;;;;;;;3.67;2.10;;;33.00;82.70;;;;;;1818445;78;21645;-71
2022/07/16 10:07:53;;;;;;;5.15;2.40;;;33.00;81.80;;;;;;1788155;80;21164;-71
2022/07/16 10:10:24;;;;;;;8.25;2.72;;;33.00;81.30;;;;;;1830855;78;21101;-71
2022/07/16 10:12:56;;;;;;;5.72;2.55;;;33.00;83.50;;;;;;1833440;77;21248;-71
2022/07/16 10:15:27;;;;;;;5.70;3.05;;;33.00;84.10;;;;;;1820188;78;22006;-71
2022/07/16 10:17:59;;;;;;;5.90;2.42;;;33.00;83.40;;;;;;1830161;78;21959;-71
2022/07/16 10:20:32;;;;;;;6.62;3.50;;;33.00;84.10;;;;;;1793571;80;21135;-71
2022/07/16 10:23:06;;;;;;;6.42;3.08;;;33.00;85.30;;;;;;1785195;79;21275;-71
2022/07/16 10:25:37;;;;;;;6.75;3.42;;;33.00;85.30;;;;;;1841971;76;21153;-71
2022/07/16 10:28:10;;;;;;;10.23;2.80;;;32.90;85.10;;;;;;1834819;78;21180;-71
2022/07/16 10:30:41;;;;;;;4.70;2.77;;;32.90;85.20;;;;;;1797464;78;21122;-72
2022/07/16 10:33:12;;;;;;;5.95;2.85;;;32.90;85.20;;;;;;1789037;80;21535;-72
2022/07/16 10:35:46;;;;;;;4.65;2.62;;;32.80;85.00;;;;;;1790164;80;21194;-71
2022/07/16 10:38:21;;;;;;;6.55;2.83;;;32.80;84.90;;;;;;1793965;80;21528;-71
2022/07/16 10:40:55;;;;;;;9.10;3.43;;;32.80;84.30;;;;;;1776282;80;21559;-73
2022/07/16 10:43:28;;;;;;;4.67;2.87;;;32.80;84.60;;;;;;1760111;81;21080;-74
2022/07/16 10:46:01;;;;;;;5.62;2.77;;;32.80;85.30;;;;;;1763184;79;21638;-70
2022/07/16 10:48:34;;;;;;;4.33;3.00;;;32.80;85.90;;;;;;1794819;78;21167;-71
2022/07/16 10:51:08;;;;;;;8.43;3.00;;;32.80;86.40;;;;;;1835371;78;21145;-71
2022/07/16 10:53:42;;;;;;;4.62;2.77;;;32.70;86.20;;;;;;1838999;78;21102;-72
2022/07/16 10:56:16;;;;;;;8.18;3.17;;;32.70;86.20;;;;;;1834522;78;21656;-71
2022/07/16 10:58:48;;;;;;;8.50;2.90;;;32.60;85.90;;;;;;1834760;78;21659;-71
2022/07/16 11:01:19;;;;;;;10.48;2.77;;;32.60;85.60;;;;;;1861501;77;21197;-72
2022/07/16 11:03:52;;;;;;;5.28;2.80;;;32.60;85.20;;;;;;1861613;77;21880;-71
2022/07/16 11:06:24;;;;;;;6.28;2.65;;;32.60;85.50;;;;;;1861571;77;21085;-72
2022/07/16 11:08:55;;;;;;;8.38;3.12;;;32.60;85.80;;;;;;1855330;77;21208;-72
2022/07/16 11:11:29;;;;;;;7.90;4.00;;;32.60;86.30;;;;;;1838294;78;21569;-71
2022/07/16 11:14:01;;;;;;;8.33;3.40;;;32.50;85.90;;;;;;1837063;78;21553;-72
2022/07/16 11:16:32;;;;;;;6.83;4.37;;;32.50;86.20;;;;;;1842106;77;21534;-72
2022/07/16 11:19:05;;;;;;;10.15;3.83;;;32.50;86.60;;;;;;1837173;78;21094;-71
2022/07/16 11:21:36;;;;;;;7.75;3.40;;;32.40;86.90;;;;;;1788958;80;21248;-71
2022/07/16 11:24:07;;;;;;;7.95;3.87;;;32.40;87.10;;;;;;1826077;78;21080;-71
2022/07/16 11:26:39;;;;;;;6.97;3.35;;;32.30;87.20;;;;;;1826149;78;21162;-71
2022/07/16 11:29:10;;;;;;;7.25;4.12;;;32.40;87.70;;;;;;1825777;78;21161;-71
2022/07/16 11:31:41;;;;;;;6.95;2.92;;;32.30;87.90;;;;;;1825977;78;21178;-71
2022/07/16 11:34:13;;;;;;;9.03;3.92;;;32.30;87.80;;;;;;1826107;78;21226;-72
2022/07/16 11:36:47;;;;;;;5.95;3.37;;;32.30;87.80;;;;;;1829581;78;21609;-72
2022/07/16 11:39:21;;;;;;;8.18;3.95;;;32.30;87.60;;;;;;1816363;78;21609;-72
2022/07/16 11:41:54;;;;;;;9.93;3.83;;;32.20;87.40;;;;;;1825896;78;21150;-72
2022/07/16 11:44:29;;;;;;;8.58;3.72;;;32.20;87.50;;;;;;1819840;77;21661;-73
2022/07/16 11:47:02;;;;;;;5.70;3.25;;;32.20;87.90;;;;;;1822511;78;21181;-72
2022/07/16 11:49:39;;;;;;;5.78;3.22;;;32.20;88.00;;;;;;1824058;78;21131;-72
2022/07/16 11:52:13;;;;;;;8.45;3.65;;;32.20;88.20;;;;;;1825599;78;21104;-71
2022/07/16 11:54:43;;;;;;;11.08;3.90;;;32.20;88.10;;;;;;1825003;77;21779;-72
2022/07/16 11:57:15;;;;;;;6.45;4.12;;;32.10;88.10;;;;;;1812463;77;21186;-71
2022/07/16 11:59:48;;;;;;;8.98;3.55;;;32.10;88.80;;;;;;1824207;77;21198;-71
2022/07/16 12:02:22;;;;;;;8.55;4.33;;;32.10;88.40;;;;;;1821405;77;21174;-71
2022/07/16 12:04:55;;;;;;;8.85;3.95;;;32.10;88.60;;;;;;1825125;78;21233;-72
2022/07/16 12:07:29;;;;;;;9.68;4.50;;;32.00;88.70;;;;;;1825662;78;21094;-71
2022/07/16 12:10:02;;;;;;;10.32;4.92;;;32.00;89.00;;;;;;1825726;78;21105;-72
2022/07/16 12:12:35;;;;;;;13.95;4.72;;;32.00;89.20;;;;;;1821461;79;21193;-71
2022/07/16 12:15:12;;;;;;;10.03;5.10;;;32.00;89.30;;;;;;1852869;77;21109;-71
2022/07/16 12:17:46;;;;;;;11.78;5.05;;;32.00;89.50;;;;;;1852851;77;21253;-71
2022/07/16 12:20:21;;;;;;;9.18;5.65;;;31.90;89.60;;;;;;1847482;77;21074;-72
2022/07/16 12:22:56;;;;;;;12.20;5.37;;;31.90;89.90;;;;;;1844490;78;21253;-72
2022/07/16 12:25:30;;;;;;;11.38;5.15;;;31.90;90.10;;;;;;1850501;77;21142;-71
2022/07/16 12:28:04;;;;;;;13.25;5.17;;;31.90;90.30;;;;;;1818133;78;22295;-70
2022/07/16 12:30:37;;;;;;;9.50;4.60;;;31.80;90.30;;;;;;1846385;77;21192;-70
2022/07/16 12:33:11;;;;;;;12.93;5.10;;;31.80;90.40;;;;;;1853208;77;21683;-72
2022/07/16 12:35:45;;;;;;;12.00;5.10;;;31.80;90.40;;;;;;1853280;77;21221;-70
2022/07/16 12:38:20;;;;;;;10.20;5.30;;;31.80;90.60;;;;;;1852780;77;21098;-71
2022/07/16 12:40:54;;;;;;;10.72;5.00;;;31.80;90.70;;;;;;1850366;77;21590;-71
2022/07/16 12:43:28;;;;;;;13.25;5.40;;;31.80;90.90;;;;;;1853349;77;21545;-71
2022/07/16 12:46:03;;;;;;;10.00;4.72;;;31.80;90.90;;;;;;1852559;77;21083;-74
2022/07/16 12:48:37;;;;;;;10.23;4.85;;;31.80;90.90;;;;;;1852607;77;21589;-70
2022/07/16 12:51:08;;;;;;;13.45;4.85;;;31.80;91.10;;;;;;1852344;77;21135;-71
2022/07/16 12:53:40;;;;;;;9.23;5.35;;;31.70;91.30;;;;;;1837354;78;21147;-72
2022/07/16 12:58:47;;;;;;;11.83;5.30;;;31.70;91.50;;;;;;1821206;77;21190;-71
2022/07/16 13:01:20;;;;;;;10.80;5.75;;;31.70;91.50;;;;;;1785901;80;21151;-72
2022/07/16 13:03:55;;;;;;;11.10;5.87;;;31.60;91.30;;;;;;1818443;79;21163;-73
2022/07/16 13:06:27;;;;;;;11.78;5.33;;;31.60;91.40;;;;;;1859010;76;21171;-71
2022/07/16 13:08:58;;;;;;;10.00;5.55;;;31.60;91.50;;;;;;1821372;79;21183;-73
2022/07/16 13:11:30;;;;;;;11.18;5.50;;;31.60;91.60;;;;;;1815965;79;21312;-72
2022/07/16 13:14:01;;;;;;;11.55;5.97;;;31.60;91.70;;;;;;1855890;77;21663;-73
2022/07/16 13:16:33;;;;;;;10.70;6.28;;;31.60;91.70;;;;;;1809100;79;21194;-72